Rosecrans Memorial Airport St Joseph US
ICAO: KSTJ
IATA: STJ
Category: Medium
Scheduled Services: No

Elevation: 826 ft
TransAlt. 18000 ft.

Airport Communications:
ST JOSEPH APP/DEP:120.35
ATIS:125.05
CTAF:126.9
GND:121.9
ANG COMD POST:34.94
ST JOSEPH TWR:126.9
UNICOM:122.95

KSTJ Zoom In..

If you have problems with the map follow the link
https://www.worldairports.se/pages/airport.php?
ICAO=KSTJ

Runways:

(A) RW 13 length 4797 ft width 75 ft
---- / hdg 132

(B) RW 17 length 8061 ft width 150 ft
---- / hdg 176

(C) RW 31 length 4797 ft width 75 ft
---- / hdg 312

(D) RW 35 length 8061 ft width 150 ft
ILS 110.30 / hdg 356

Location; KSTJ
Day. 29 / Time. 16.53 Zulu
* Altimeter: 30.21
* Temperature: -02° c. -28.4°f.
* Wind from: 000° Speed 00 kn.
Dewpoint: -04° c.
Visibility: 6 Statute Miles.
Clouds: Broken 1300 ft.
Clouds: Overcast 3700 ft.
Conditions: Light Snow.

KSTJ 291653Z 00000KT 6SM -SN BKN013 OVC037 M02/M04 A3021 RMK AO2 SNB51 SLP239 P0000 T10171044


Wind - Calm.

 
 
jpsmedia worldairports.se 2020   terms of use